sensor_id;sensor_type;location;lat;lon;timestamp;P1;durP1;ratioP1;P2;durP2;ratioP2
17207;SDS011;8720;48.488;9.202;2023-02-19T00:01:33;2.20;;;2.00;;
17207;SDS011;8720;48.488;9.202;2023-02-19T00:04:05;2.50;;;2.30;;
17207;SDS011;8720;48.488;9.202;2023-02-19T00:06:37;2.57;;;2.37;;
17207;SDS011;8720;48.488;9.202;2023-02-19T00:09:04;2.47;;;1.97;;
17207;SDS011;8720;48.488;9.202;2023-02-19T00:11:33;2.20;;;1.93;;
17207;SDS011;8720;48.488;9.202;2023-02-19T00:14:01;2.37;;;2.00;;
17207;SDS011;8720;48.488;9.202;2023-02-19T00:16:32;2.73;;;2.43;;
17207;SDS011;8720;48.488;9.202;2023-02-19T00:19:02;2.53;;;2.33;;
17207;SDS011;8720;48.488;9.202;2023-02-19T00:21:32;2.50;;;2.30;;
17207;SDS011;8720;48.488;9.202;2023-02-19T00:24:01;2.60;;;2.40;;
17207;SDS011;8720;48.488;9.202;2023-02-19T00:26:32;3.00;;;2.27;;
17207;SDS011;8720;48.488;9.202;2023-02-19T00:29:00;2.43;;;2.10;;
17207;SDS011;8720;48.488;9.202;2023-02-19T00:31:28;3.17;;;2.37;;
17207;SDS011;8720;48.488;9.202;2023-02-19T00:33:59;3.13;;;2.23;;
17207;SDS011;8720;48.488;9.202;2023-02-19T00:36:30;3.53;;;2.30;;
17207;SDS011;8720;48.488;9.202;2023-02-19T00:39:00;3.20;;;1.73;;
17207;SDS011;8720;48.488;9.202;2023-02-19T00:41:28;3.87;;;2.60;;
17207;SDS011;8720;48.488;9.202;2023-02-19T00:43:56;3.03;;;2.20;;
17207;SDS011;8720;48.488;9.202;2023-02-19T00:46:26;3.30;;;2.50;;
17207;SDS011;8720;48.488;9.202;2023-02-19T00:48:56;2.67;;;2.33;;
17207;SDS011;8720;48.488;9.202;2023-02-19T00:51:25;2.97;;;2.13;;
17207;SDS011;8720;48.488;9.202;2023-02-19T00:53:56;3.17;;;2.30;;
17207;SDS011;8720;48.488;9.202;2023-02-19T00:56:24;3.47;;;2.50;;
17207;SDS011;8720;48.488;9.202;2023-02-19T00:58:52;2.20;;;2.00;;
17207;SDS011;8720;48.488;9.202;2023-02-19T01:01:20;3.20;;;2.00;;
17207;SDS011;8720;48.488;9.202;2023-02-19T01:03:47;3.30;;;2.40;;
17207;SDS011;8720;48.488;9.202;2023-02-19T01:06:15;2.60;;;2.07;;
17207;SDS011;8720;48.488;9.202;2023-02-19T01:08:45;2.87;;;2.17;;
17207;SDS011;8720;48.488;9.202;2023-02-19T01:11:14;2.10;;;1.80;;
17207;SDS011;8720;48.488;9.202;2023-02-19T01:13:44;2.40;;;2.00;;
17207;SDS011;8720;48.488;9.202;2023-02-19T01:16:12;2.03;;;1.87;;
17207;SDS011;8720;48.488;9.202;2023-02-19T01:18:42;2.70;;;2.50;;
17207;SDS011;8720;48.488;9.202;2023-02-19T01:21:12;2.23;;;2.00;;
17207;SDS011;8720;48.488;9.202;2023-02-19T01:23:42;2.60;;;2.30;;
17207;SDS011;8720;48.488;9.202;2023-02-19T01:26:11;2.57;;;2.10;;
17207;SDS011;8720;48.488;9.202;2023-02-19T01:28:43;2.30;;;2.10;;
17207;SDS011;8720;48.488;9.202;2023-02-19T01:31:11;2.57;;;2.07;;
17207;SDS011;8720;48.488;9.202;2023-02-19T01:33:43;2.03;;;1.83;;
17207;SDS011;8720;48.488;9.202;2023-02-19T01:36:11;2.03;;;1.87;;
17207;SDS011;8720;48.488;9.202;2023-02-19T01:38:42;2.13;;;1.93;;
17207;SDS011;8720;48.488;9.202;2023-02-19T01:41:11;1.93;;;1.80;;
17207;SDS011;8720;48.488;9.202;2023-02-19T01:43:57;2.20;;;1.83;;
17207;SDS011;8720;48.488;9.202;2023-02-19T01:46:28;2.20;;;2.00;;
17207;SDS011;8720;48.488;9.202;2023-02-19T01:48:57;2.77;;;2.37;;
17207;SDS011;8720;48.488;9.202;2023-02-19T01:51:29;2.63;;;1.73;;
17207;SDS011;8720;48.488;9.202;2023-02-19T01:53:59;2.20;;;2.00;;
17207;SDS011;8720;48.488;9.202;2023-02-19T01:56:33;2.50;;;2.30;;
17207;SDS011;8720;48.488;9.202;2023-02-19T01:59:05;2.20;;;2.00;;
17207;SDS011;8720;48.488;9.202;2023-02-19T02:01:33;2.10;;;1.90;;
17207;SDS011;8720;48.488;9.202;2023-02-19T02:04:02;2.63;;;2.10;;
17207;SDS011;8720;48.488;9.202;2023-02-19T02:06:36;2.40;;;2.20;;
17207;SDS011;8720;48.488;9.202;2023-02-19T02:09:11;2.10;;;1.90;;
17207;SDS011;8720;48.488;9.202;2023-02-19T02:11:58;2.33;;;2.10;;
17207;SDS011;8720;48.488;9.202;2023-02-19T02:14:26;1.93;;;1.70;;
17207;SDS011;8720;48.488;9.202;2023-02-19T02:17:00;2.30;;;2.03;;
17207;SDS011;8720;48.488;9.202;2023-02-19T02:19:55;2.50;;;2.30;;
17207;SDS011;8720;48.488;9.202;2023-02-19T02:22:43;1.90;;;1.80;;
17207;SDS011;8720;48.488;9.202;2023-02-19T02:25:29;1.70;;;1.60;;
17207;SDS011;8720;48.488;9.202;2023-02-19T02:28:35;2.50;;;2.20;;
17207;SDS011;8720;48.488;9.202;2023-02-19T02:31:25;2.10;;;1.90;;
17207;SDS011;8720;48.488;9.202;2023-02-19T02:34:00;3.77;;;2.60;;
17207;SDS011;8720;48.488;9.202;2023-02-19T02:36:34;2.97;;;2.67;;
17207;SDS011;8720;48.488;9.202;2023-02-19T02:39:06;2.80;;;2.20;;
17207;SDS011;8720;48.488;9.202;2023-02-19T02:41:48;2.60;;;1.87;;
17207;SDS011;8720;48.488;9.202;2023-02-19T02:44:35;2.67;;;2.20;;
17207;SDS011;8720;48.488;9.202;2023-02-19T02:47:30;2.43;;;2.23;;
17207;SDS011;8720;48.488;9.202;2023-02-19T02:50:12;2.20;;;2.00;;
17207;SDS011;8720;48.488;9.202;2023-02-19T02:52:45;2.50;;;2.30;;
17207;SDS011;8720;48.488;9.202;2023-02-19T02:55:36;2.00;;;1.80;;
17207;SDS011;8720;48.488;9.202;2023-02-19T02:58:12;2.10;;;1.80;;
17207;SDS011;8720;48.488;9.202;2023-02-19T03:03:27;1.90;;;1.60;;
17207;SDS011;8720;48.488;9.202;2023-02-19T03:06:02;1.50;;;1.30;;
17207;SDS011;8720;48.488;9.202;2023-02-19T03:08:35;1.70;;;1.57;;
17207;SDS011;8720;48.488;9.202;2023-02-19T03:11:08;2.20;;;1.40;;
17207;SDS011;8720;48.488;9.202;2023-02-19T03:13:56;2.27;;;1.70;;
17207;SDS011;8720;48.488;9.202;2023-02-19T03:16:47;1.93;;;1.67;;
17207;SDS011;8720;48.488;9.202;2023-02-19T03:19:42;1.97;;;1.67;;
17207;SDS011;8720;48.488;9.202;2023-02-19T03:22:18;1.73;;;1.53;;
17207;SDS011;8720;48.488;9.202;2023-02-19T03:24:51;1.80;;;1.60;;
17207;SDS011;8720;48.488;9.202;2023-02-19T03:27:43;1.80;;;1.63;;
17207;SDS011;8720;48.488;9.202;2023-02-19T03:30:17;1.57;;;1.40;;
17207;SDS011;8720;48.488;9.202;2023-02-19T03:32:49;2.90;;;1.50;;
17207;SDS011;8720;48.488;9.202;2023-02-19T03:35:23;1.67;;;1.40;;
17207;SDS011;8720;48.488;9.202;2023-02-19T03:37:58;1.53;;;1.43;;
17207;SDS011;8720;48.488;9.202;2023-02-19T03:40:37;1.93;;;1.73;;
17207;SDS011;8720;48.488;9.202;2023-02-19T03:43:18;2.03;;;1.70;;
17207;SDS011;8720;48.488;9.202;2023-02-19T03:45:54;2.00;;;1.80;;
17207;SDS011;8720;48.488;9.202;2023-02-19T03:48:33;2.07;;;1.47;;
17207;SDS011;8720;48.488;9.202;2023-02-19T03:51:13;1.67;;;1.57;;
17207;SDS011;8720;48.488;9.202;2023-02-19T03:53:57;1.90;;;1.67;;
17207;SDS011;8720;48.488;9.202;2023-02-19T03:56:41;2.60;;;1.57;;
17207;SDS011;8720;48.488;9.202;2023-02-19T03:59:16;2.27;;;1.47;;
17207;SDS011;8720;48.488;9.202;2023-02-19T04:01:53;2.33;;;1.80;;
17207;SDS011;8720;48.488;9.202;2023-02-19T04:04:29;1.77;;;1.67;;
17207;SDS011;8720;48.488;9.202;2023-02-19T04:07:04;1.73;;;1.60;;
17207;SDS011;8720;48.488;9.202;2023-02-19T04:09:35;1.57;;;1.40;;
17207;SDS011;8720;48.488;9.202;2023-02-19T04:12:11;1.80;;;1.53;;
17207;SDS011;8720;48.488;9.202;2023-02-19T04:14:43;1.70;;;1.40;;
17207;SDS011;8720;48.488;9.202;2023-02-19T04:17:19;1.90;;;1.47;;
17207;SDS011;8720;48.488;9.202;2023-02-19T04:19:52;2.00;;;1.53;;
17207;SDS011;8720;48.488;9.202;2023-02-19T04:22:24;1.63;;;1.30;;
17207;SDS011;8720;48.488;9.202;2023-02-19T04:24:53;2.20;;;1.60;;
17207;SDS011;8720;48.488;9.202;2023-02-19T04:27:20;1.40;;;1.30;;
17207;SDS011;8720;48.488;9.202;2023-02-19T04:29:48;1.50;;;1.40;;
17207;SDS011;8720;48.488;9.202;2023-02-19T04:32:15;1.70;;;1.60;;
17207;SDS011;8720;48.488;9.202;2023-02-19T04:34:42;2.23;;;1.40;;
17207;SDS011;8720;48.488;9.202;2023-02-19T04:37:10;2.00;;;1.70;;
17207;SDS011;8720;48.488;9.202;2023-02-19T04:39:39;1.53;;;1.43;;
17207;SDS011;8720;48.488;9.202;2023-02-19T04:42:06;1.90;;;1.63;;
17207;SDS011;8720;48.488;9.202;2023-02-19T04:44:35;1.60;;;1.50;;
17207;SDS011;8720;48.488;9.202;2023-02-19T04:47:02;1.93;;;1.30;;
17207;SDS011;8720;48.488;9.202;2023-02-19T04:49:30;2.43;;;1.63;;
17207;SDS011;8720;48.488;9.202;2023-02-19T04:51:57;3.10;;;1.73;;
17207;SDS011;8720;48.488;9.202;2023-02-19T04:54:24;1.70;;;1.57;;
17207;SDS011;8720;48.488;9.202;2023-02-19T04:56:53;1.63;;;1.30;;
17207;SDS011;8720;48.488;9.202;2023-02-19T04:59:21;1.50;;;1.20;;
17207;SDS011;8720;48.488;9.202;2023-02-19T05:01:48;3.53;;;1.40;;
17207;SDS011;8720;48.488;9.202;2023-02-19T05:04:16;1.60;;;1.50;;
17207;SDS011;8720;48.488;9.202;2023-02-19T05:06:46;1.97;;;1.40;;
17207;SDS011;8720;48.488;9.202;2023-02-19T05:09:13;1.50;;;1.27;;
17207;SDS011;8720;48.488;9.202;2023-02-19T05:11:40;1.50;;;1.40;;
17207;SDS011;8720;48.488;9.202;2023-02-19T05:14:09;2.30;;;2.10;;
17207;SDS011;8720;48.488;9.202;2023-02-19T05:16:36;3.10;;;1.50;;
17207;SDS011;8720;48.488;9.202;2023-02-19T05:19:04;1.90;;;1.80;;
17207;SDS011;8720;48.488;9.202;2023-02-19T05:21:31;2.00;;;1.60;;
17207;SDS011;8720;48.488;9.202;2023-02-19T05:23:59;1.97;;;1.77;;
17207;SDS011;8720;48.488;9.202;2023-02-19T05:26:26;2.20;;;1.53;;
17207;SDS011;8720;48.488;9.202;2023-02-19T05:28:55;1.67;;;1.57;;
17207;SDS011;8720;48.488;9.202;2023-02-19T05:31:24;2.77;;;1.80;;
17207;SDS011;8720;48.488;9.202;2023-02-19T05:33:51;2.47;;;1.50;;
17207;SDS011;8720;48.488;9.202;2023-02-19T05:36:20;1.60;;;1.43;;
17207;SDS011;8720;48.488;9.202;2023-02-19T05:38:50;3.00;;;1.40;;
17207;SDS011;8720;48.488;9.202;2023-02-19T05:41:19;2.67;;;1.53;;
17207;SDS011;8720;48.488;9.202;2023-02-19T05:43:49;1.50;;;1.30;;
17207;SDS011;8720;48.488;9.202;2023-02-19T05:46:18;1.70;;;1.60;;
17207;SDS011;8720;48.488;9.202;2023-02-19T05:48:50;1.90;;;1.70;;
17207;SDS011;8720;48.488;9.202;2023-02-19T05:51:19;2.07;;;1.70;;
17207;SDS011;8720;48.488;9.202;2023-02-19T05:53:49;3.57;;;1.53;;
17207;SDS011;8720;48.488;9.202;2023-02-19T05:56:20;1.43;;;1.33;;
17207;SDS011;8720;48.488;9.202;2023-02-19T05:58:55;1.80;;;1.43;;
17207;SDS011;8720;48.488;9.202;2023-02-19T06:01:24;2.53;;;1.40;;
17207;SDS011;8720;48.488;9.202;2023-02-19T06:03:55;1.50;;;1.40;;
17207;SDS011;8720;48.488;9.202;2023-02-19T06:06:23;1.80;;;1.50;;
17207;SDS011;8720;48.488;9.202;2023-02-19T06:08:52;1.50;;;1.40;;
17207;SDS011;8720;48.488;9.202;2023-02-19T06:11:19;1.40;;;1.30;;
17207;SDS011;8720;48.488;9.202;2023-02-19T06:13:48;2.80;;;1.50;;
17207;SDS011;8720;48.488;9.202;2023-02-19T06:16:16;1.93;;;1.53;;
17207;SDS011;8720;48.488;9.202;2023-02-19T06:18:44;1.57;;;1.30;;
17207;SDS011;8720;48.488;9.202;2023-02-19T06:21:13;1.63;;;1.50;;
17207;SDS011;8720;48.488;9.202;2023-02-19T06:23:42;1.63;;;1.43;;
17207;SDS011;8720;48.488;9.202;2023-02-19T06:26:10;1.70;;;1.30;;
17207;SDS011;8720;48.488;9.202;2023-02-19T06:28:41;1.30;;;1.03;;
17207;SDS011;8720;48.488;9.202;2023-02-19T06:31:09;1.50;;;1.20;;
17207;SDS011;8720;48.488;9.202;2023-02-19T06:33:38;1.50;;;1.27;;
17207;SDS011;8720;48.488;9.202;2023-02-19T06:36:07;1.50;;;1.20;;
17207;SDS011;8720;48.488;9.202;2023-02-19T06:38:40;1.33;;;1.20;;
17207;SDS011;8720;48.488;9.202;2023-02-19T06:41:09;1.43;;;1.23;;
17207;SDS011;8720;48.488;9.202;2023-02-19T06:43:38;1.73;;;1.00;;
17207;SDS011;8720;48.488;9.202;2023-02-19T06:46:06;1.47;;;1.20;;
17207;SDS011;8720;48.488;9.202;2023-02-19T06:48:34;1.70;;;1.20;;
17207;SDS011;8720;48.488;9.202;2023-02-19T06:51:01;1.67;;;1.10;;
17207;SDS011;8720;48.488;9.202;2023-02-19T06:53:30;1.20;;;1.00;;
17207;SDS011;8720;48.488;9.202;2023-02-19T06:55:58;1.47;;;1.03;;
17207;SDS011;8720;48.488;9.202;2023-02-19T06:58:28;1.13;;;0.90;;
17207;SDS011;8720;48.488;9.202;2023-02-19T07:00:56;1.30;;;1.10;;
17207;SDS011;8720;48.488;9.202;2023-02-19T07:03:23;1.20;;;0.90;;
17207;SDS011;8720;48.488;9.202;2023-02-19T07:05:51;1.57;;;0.90;;
17207;SDS011;8720;48.488;9.202;2023-02-19T07:08:19;1.57;;;1.10;;
17207;SDS011;8720;48.488;9.202;2023-02-19T07:10:54;1.37;;;1.20;;
17207;SDS011;8720;48.488;9.202;2023-02-19T07:13:22;1.90;;;1.70;;
17207;SDS011;8720;48.488;9.202;2023-02-19T07:15:56;1.80;;;1.30;;
17207;SDS011;8720;48.488;9.202;2023-02-19T07:18:25;1.50;;;1.20;;
17207;SDS011;8720;48.488;9.202;2023-02-19T07:20:53;1.20;;;1.00;;
17207;SDS011;8720;48.488;9.202;2023-02-19T07:23:20;1.10;;;0.80;;
17207;SDS011;8720;48.488;9.202;2023-02-19T07:25:48;1.20;;;0.80;;
17207;SDS011;8720;48.488;9.202;2023-02-19T07:28:16;1.50;;;0.70;;
17207;SDS011;8720;48.488;9.202;2023-02-19T07:30:43;0.90;;;0.60;;
17207;SDS011;8720;48.488;9.202;2023-02-19T07:33:11;0.93;;;0.70;;
17207;SDS011;8720;48.488;9.202;2023-02-19T07:35:43;1.00;;;0.60;;
17207;SDS011;8720;48.488;9.202;2023-02-19T07:38:13;1.00;;;0.70;;
17207;SDS011;8720;48.488;9.202;2023-02-19T07:40:49;1.10;;;0.80;;
17207;SDS011;8720;48.488;9.202;2023-02-19T07:43:18;0.90;;;0.60;;
17207;SDS011;8720;48.488;9.202;2023-02-19T07:45:46;1.00;;;0.70;;
17207;SDS011;8720;48.488;9.202;2023-02-19T07:48:14;1.00;;;0.70;;
17207;SDS011;8720;48.488;9.202;2023-02-19T07:50:42;0.97;;;0.67;;
17207;SDS011;8720;48.488;9.202;2023-02-19T07:53:17;1.10;;;0.80;;
17207;SDS011;8720;48.488;9.202;2023-02-19T07:55:45;1.03;;;0.70;;
17207;SDS011;8720;48.488;9.202;2023-02-19T07:58:12;1.00;;;0.80;;
17207;SDS011;8720;48.488;9.202;2023-02-19T08:00:41;1.00;;;0.70;;
17207;SDS011;8720;48.488;9.202;2023-02-19T08:03:09;1.80;;;0.80;;
17207;SDS011;8720;48.488;9.202;2023-02-19T08:05:37;1.53;;;1.00;;
17207;SDS011;8720;48.488;9.202;2023-02-19T08:08:07;1.10;;;0.80;;
17207;SDS011;8720;48.488;9.202;2023-02-19T08:10:37;1.00;;;0.70;;
17207;SDS011;8720;48.488;9.202;2023-02-19T08:13:22;0.90;;;0.60;;
17207;SDS011;8720;48.488;9.202;2023-02-19T08:16:07;1.30;;;0.70;;
17207;SDS011;8720;48.488;9.202;2023-02-19T08:18:40;1.10;;;0.73;;
17207;SDS011;8720;48.488;9.202;2023-02-19T08:21:07;1.07;;;0.70;;
17207;SDS011;8720;48.488;9.202;2023-02-19T08:23:35;1.50;;;0.70;;
17207;SDS011;8720;48.488;9.202;2023-02-19T08:26:03;1.00;;;0.70;;
17207;SDS011;8720;48.488;9.202;2023-02-19T08:28:30;1.10;;;0.70;;
17207;SDS011;8720;48.488;9.202;2023-02-19T08:31:00;1.00;;;0.70;;
17207;SDS011;8720;48.488;9.202;2023-02-19T08:33:31;1.40;;;0.80;;
17207;SDS011;8720;48.488;9.202;2023-02-19T08:36:00;1.00;;;0.60;;
17207;SDS011;8720;48.488;9.202;2023-02-19T08:38:30;1.07;;;0.70;;
17207;SDS011;8720;48.488;9.202;2023-02-19T08:41:02;1.10;;;0.70;;
17207;SDS011;8720;48.488;9.202;2023-02-19T08:43:31;1.37;;;0.80;;
17207;SDS011;8720;48.488;9.202;2023-02-19T08:46:01;1.10;;;0.70;;
17207;SDS011;8720;48.488;9.202;2023-02-19T08:48:29;1.40;;;1.30;;
17207;SDS011;8720;48.488;9.202;2023-02-19T08:50:57;1.10;;;0.80;;
17207;SDS011;8720;48.488;9.202;2023-02-19T08:53:28;1.23;;;0.77;;
17207;SDS011;8720;48.488;9.202;2023-02-19T08:55:57;2.03;;;0.90;;
17207;SDS011;8720;48.488;9.202;2023-02-19T08:58:29;1.40;;;1.00;;
17207;SDS011;8720;48.488;9.202;2023-02-19T09:00:57;1.50;;;1.30;;
17207;SDS011;8720;48.488;9.202;2023-02-19T09:03:25;2.33;;;1.20;;
17207;SDS011;8720;48.488;9.202;2023-02-19T09:05:53;1.50;;;1.03;;
17207;SDS011;8720;48.488;9.202;2023-02-19T09:08:20;1.33;;;1.17;;
17207;SDS011;8720;48.488;9.202;2023-02-19T09:10:55;1.40;;;1.17;;
17207;SDS011;8720;48.488;9.202;2023-02-19T09:13:24;1.50;;;0.90;;
17207;SDS011;8720;48.488;9.202;2023-02-19T09:15:52;1.43;;;1.00;;
17207;SDS011;8720;48.488;9.202;2023-02-19T09:18:21;1.10;;;0.83;;
17207;SDS011;8720;48.488;9.202;2023-02-19T09:20:51;1.07;;;0.80;;
17207;SDS011;8720;48.488;9.202;2023-02-19T09:23:18;1.27;;;0.80;;
17207;SDS011;8720;48.488;9.202;2023-02-19T09:25:45;1.10;;;0.70;;
17207;SDS011;8720;48.488;9.202;2023-02-19T09:28:13;1.30;;;0.90;;
17207;SDS011;8720;48.488;9.202;2023-02-19T09:30:41;1.20;;;0.80;;
17207;SDS011;8720;48.488;9.202;2023-02-19T09:33:08;1.20;;;0.90;;
17207;SDS011;8720;48.488;9.202;2023-02-19T09:35:38;1.10;;;0.70;;
17207;SDS011;8720;48.488;9.202;2023-02-19T09:38:07;1.10;;;0.80;;
17207;SDS011;8720;48.488;9.202;2023-02-19T09:40:35;1.17;;;0.80;;
17207;SDS011;8720;48.488;9.202;2023-02-19T09:43:05;1.10;;;0.87;;
17207;SDS011;8720;48.488;9.202;2023-02-19T09:45:35;1.20;;;0.90;;
17207;SDS011;8720;48.488;9.202;2023-02-19T09:48:03;1.63;;;1.10;;
17207;SDS011;8720;48.488;9.202;2023-02-19T09:50:36;1.20;;;0.93;;
17207;SDS011;8720;48.488;9.202;2023-02-19T09:53:12;1.23;;;0.77;;
17207;SDS011;8720;48.488;9.202;2023-02-19T09:55:47;1.40;;;1.00;;
17207;SDS011;8720;48.488;9.202;2023-02-19T09:58:20;1.10;;;0.83;;
17207;SDS011;8720;48.488;9.202;2023-02-19T10:00:54;1.60;;;1.03;;
17207;SDS011;8720;48.488;9.202;2023-02-19T10:03:25;1.40;;;0.90;;
17207;SDS011;8720;48.488;9.202;2023-02-19T10:05:58;1.40;;;0.90;;
17207;SDS011;8720;48.488;9.202;2023-02-19T10:08:32;1.77;;;1.10;;
17207;SDS011;8720;48.488;9.202;2023-02-19T10:11:02;1.20;;;1.00;;
17207;SDS011;8720;48.488;9.202;2023-02-19T10:13:32;1.70;;;1.03;;
17207;SDS011;8720;48.488;9.202;2023-02-19T10:16:08;1.30;;;0.90;;
17207;SDS011;8720;48.488;9.202;2023-02-19T10:18:42;1.50;;;1.30;;
17207;SDS011;8720;48.488;9.202;2023-02-19T10:21:13;1.50;;;0.83;;
17207;SDS011;8720;48.488;9.202;2023-02-19T10:23:46;1.20;;;1.00;;
17207;SDS011;8720;48.488;9.202;2023-02-19T10:26:21;1.43;;;1.00;;
17207;SDS011;8720;48.488;9.202;2023-02-19T10:28:49;1.27;;;1.03;;
17207;SDS011;8720;48.488;9.202;2023-02-19T10:31:19;1.30;;;1.00;;
17207;SDS011;8720;48.488;9.202;2023-02-19T10:33:49;1.40;;;1.00;;
17207;SDS011;8720;48.488;9.202;2023-02-19T10:36:23;1.50;;;0.90;;
17207;SDS011;8720;48.488;9.202;2023-02-19T10:38:55;1.60;;;1.20;;
17207;SDS011;8720;48.488;9.202;2023-02-19T10:41:24;1.60;;;1.00;;
17207;SDS011;8720;48.488;9.202;2023-02-19T10:43:54;1.70;;;1.17;;
17207;SDS011;8720;48.488;9.202;2023-02-19T10:46:31;1.40;;;1.20;;
17207;SDS011;8720;48.488;9.202;2023-02-19T10:49:03;1.10;;;1.00;;
17207;SDS011;8720;48.488;9.202;2023-02-19T10:51:43;1.83;;;0.90;;
17207;SDS011;8720;48.488;9.202;2023-02-19T10:54:16;2.10;;;0.90;;
17207;SDS011;8720;48.488;9.202;2023-02-19T10:56:50;1.70;;;1.40;;
17207;SDS011;8720;48.488;9.202;2023-02-19T10:59:22;2.90;;;1.60;;
17207;SDS011;8720;48.488;9.202;2023-02-19T11:01:52;1.20;;;1.03;;
17207;SDS011;8720;48.488;9.202;2023-02-19T11:04:22;1.30;;;1.13;;
17207;SDS011;8720;48.488;9.202;2023-02-19T11:06:51;2.47;;;1.53;;
17207;SDS011;8720;48.488;9.202;2023-02-19T11:09:22;1.33;;;1.10;;
17207;SDS011;8720;48.488;9.202;2023-02-19T11:11:56;1.80;;;1.37;;
17207;SDS011;8720;48.488;9.202;2023-02-19T11:14:24;2.70;;;1.30;;
17207;SDS011;8720;48.488;9.202;2023-02-19T11:16:55;1.27;;;1.17;;
17207;SDS011;8720;48.488;9.202;2023-02-19T11:19:26;1.30;;;1.20;;
17207;SDS011;8720;48.488;9.202;2023-02-19T11:22:00;1.23;;;1.13;;
17207;SDS011;8720;48.488;9.202;2023-02-19T11:24:48;1.93;;;1.20;;
17207;SDS011;8720;48.488;9.202;2023-02-19T11:27:18;4.40;;;1.20;;
17207;SDS011;8720;48.488;9.202;2023-02-19T11:29:48;1.90;;;1.30;;
17207;SDS011;8720;48.488;9.202;2023-02-19T11:32:21;1.50;;;1.20;;
17207;SDS011;8720;48.488;9.202;2023-02-19T11:35:03;2.27;;;1.20;;
17207;SDS011;8720;48.488;9.202;2023-02-19T11:37:53;1.60;;;1.40;;
17207;SDS011;8720;48.488;9.202;2023-02-19T11:40:27;2.20;;;1.20;;
17207;SDS011;8720;48.488;9.202;2023-02-19T11:43:12;3.10;;;1.50;;
17207;SDS011;8720;48.488;9.202;2023-02-19T11:46:03;1.60;;;1.13;;
17207;SDS011;8720;48.488;9.202;2023-02-19T11:48:42;2.43;;;1.30;;
17207;SDS011;8720;48.488;9.202;2023-02-19T11:54:32;2.97;;;1.20;;
17207;SDS011;8720;48.488;9.202;2023-02-19T11:57:20;2.90;;;1.00;;
17207;SDS011;8720;48.488;9.202;2023-02-19T12:03:01;2.93;;;1.20;;
17207;SDS011;8720;48.488;9.202;2023-02-19T12:05:56;2.77;;;1.40;;
17207;SDS011;8720;48.488;9.202;2023-02-19T12:08:51;2.10;;;1.40;;
17207;SDS011;8720;48.488;9.202;2023-02-19T12:11:47;1.43;;;0.93;;
17207;SDS011;8720;48.488;9.202;2023-02-19T12:14:41;2.67;;;1.00;;
17207;SDS011;8720;48.488;9.202;2023-02-19T12:17:45;2.37;;;1.30;;
17207;SDS011;8720;48.488;9.202;2023-02-19T12:20:41;2.13;;;1.20;;
17207;SDS011;8720;48.488;9.202;2023-02-19T12:23:35;2.10;;;1.13;;
17207;SDS011;8720;48.488;9.202;2023-02-19T12:26:28;2.00;;;1.30;;
17207;SDS011;8720;48.488;9.202;2023-02-19T12:29:07;3.60;;;1.43;;
17207;SDS011;8720;48.488;9.202;2023-02-19T12:32:06;1.93;;;1.10;;
17207;SDS011;8720;48.488;9.202;2023-02-19T12:35:10;1.70;;;1.17;;
17207;SDS011;8720;48.488;9.202;2023-02-19T12:37:59;2.20;;;1.20;;
17207;SDS011;8720;48.488;9.202;2023-02-19T12:40:44;2.80;;;1.20;;
17207;SDS011;8720;48.488;9.202;2023-02-19T12:43:44;1.70;;;0.93;;
17207;SDS011;8720;48.488;9.202;2023-02-19T12:46:21;1.67;;;1.37;;
17207;SDS011;8720;48.488;9.202;2023-02-19T12:48:59;1.97;;;1.30;;
17207;SDS011;8720;48.488;9.202;2023-02-19T12:51:36;2.23;;;1.47;;
17207;SDS011;8720;48.488;9.202;2023-02-19T12:54:11;2.07;;;1.23;;
17207;SDS011;8720;48.488;9.202;2023-02-19T12:56:50;1.53;;;1.33;;
17207;SDS011;8720;48.488;9.202;2023-02-19T12:59:55;2.03;;;1.70;;
17207;SDS011;8720;48.488;9.202;2023-02-19T13:02:32;1.97;;;1.40;;
17207;SDS011;8720;48.488;9.202;2023-02-19T13:05:12;2.03;;;1.27;;
17207;SDS011;8720;48.488;9.202;2023-02-19T13:07:49;2.60;;;1.90;;
17207;SDS011;8720;48.488;9.202;2023-02-19T13:10:28;1.90;;;1.70;;
17207;SDS011;8720;48.488;9.202;2023-02-19T13:13:00;2.30;;;1.47;;
17207;SDS011;8720;48.488;9.202;2023-02-19T13:15:35;2.33;;;1.90;;
17207;SDS011;8720;48.488;9.202;2023-02-19T13:18:11;2.63;;;1.60;;
17207;SDS011;8720;48.488;9.202;2023-02-19T13:20:46;3.40;;;1.60;;
17207;SDS011;8720;48.488;9.202;2023-02-19T13:23:16;3.87;;;1.67;;
17207;SDS011;8720;48.488;9.202;2023-02-19T13:29:17;1.43;;;1.00;;
17207;SDS011;8720;48.488;9.202;2023-02-19T13:32:18;1.60;;;1.10;;
17207;SDS011;8720;48.488;9.202;2023-02-19T13:35:14;2.30;;;1.07;;
17207;SDS011;8720;48.488;9.202;2023-02-19T13:37:54;2.67;;;1.23;;
17207;SDS011;8720;48.488;9.202;2023-02-19T13:40:29;2.03;;;1.10;;
17207;SDS011;8720;48.488;9.202;2023-02-19T13:43:00;1.60;;;1.10;;
17207;SDS011;8720;48.488;9.202;2023-02-19T13:45:33;1.73;;;1.10;;
17207;SDS011;8720;48.488;9.202;2023-02-19T13:48:23;3.03;;;1.30;;
17207;SDS011;8720;48.488;9.202;2023-02-19T13:54:20;1.60;;;1.20;;
17207;SDS011;8720;48.488;9.202;2023-02-19T13:59:53;2.13;;;1.30;;
17207;SDS011;8720;48.488;9.202;2023-02-19T14:02:24;3.37;;;2.20;;
17207;SDS011;8720;48.488;9.202;2023-02-19T14:04:59;3.20;;;1.37;;
17207;SDS011;8720;48.488;9.202;2023-02-19T14:07:36;1.73;;;1.17;;
17207;SDS011;8720;48.488;9.202;2023-02-19T14:25:32;5.20;;;1.70;;
17207;SDS011;8720;48.488;9.202;2023-02-19T14:28:24;3.47;;;1.63;;
17207;SDS011;8720;48.488;9.202;2023-02-19T14:30:58;2.70;;;1.80;;
17207;SDS011;8720;48.488;9.202;2023-02-19T14:33:35;3.70;;;1.73;;
17207;SDS011;8720;48.488;9.202;2023-02-19T14:36:08;3.43;;;1.30;;
17207;SDS011;8720;48.488;9.202;2023-02-19T14:38:49;2.33;;;1.30;;
17207;SDS011;8720;48.488;9.202;2023-02-19T14:41:21;1.97;;;1.43;;
17207;SDS011;8720;48.488;9.202;2023-02-19T14:43:52;1.90;;;1.40;;
17207;SDS011;8720;48.488;9.202;2023-02-19T14:46:26;3.63;;;1.50;;
17207;SDS011;8720;48.488;9.202;2023-02-19T14:48:59;1.50;;;1.20;;
17207;SDS011;8720;48.488;9.202;2023-02-19T14:51:39;3.27;;;1.70;;
17207;SDS011;8720;48.488;9.202;2023-02-19T14:54:11;2.30;;;1.80;;
17207;SDS011;8720;48.488;9.202;2023-02-19T14:56:44;3.67;;;1.87;;
17207;SDS011;8720;48.488;9.202;2023-02-19T14:59:22;3.97;;;1.77;;
17207;SDS011;8720;48.488;9.202;2023-02-19T15:01:57;2.53;;;1.90;;
17207;SDS011;8720;48.488;9.202;2023-02-19T15:04:27;2.77;;;1.90;;
17207;SDS011;8720;48.488;9.202;2023-02-19T15:07:02;2.83;;;1.83;;
17207;SDS011;8720;48.488;9.202;2023-02-19T15:09:35;3.73;;;1.53;;
17207;SDS011;8720;48.488;9.202;2023-02-19T15:12:12;3.83;;;1.60;;
17207;SDS011;8720;48.488;9.202;2023-02-19T15:14:45;3.57;;;1.60;;
17207;SDS011;8720;48.488;9.202;2023-02-19T15:17:16;2.20;;;1.33;;
17207;SDS011;8720;48.488;9.202;2023-02-19T15:19:51;3.53;;;1.90;;
17207;SDS011;8720;48.488;9.202;2023-02-19T15:22:20;2.97;;;2.00;;
17207;SDS011;8720;48.488;9.202;2023-02-19T15:24:52;2.60;;;1.53;;
17207;SDS011;8720;48.488;9.202;2023-02-19T15:27:20;3.30;;;3.00;;
17207;SDS011;8720;48.488;9.202;2023-02-19T15:29:52;4.60;;;3.03;;
17207;SDS011;8720;48.488;9.202;2023-02-19T15:32:20;4.07;;;3.13;;
17207;SDS011;8720;48.488;9.202;2023-02-19T15:34:54;3.50;;;2.90;;
17207;SDS011;8720;48.488;9.202;2023-02-19T15:37:24;3.57;;;2.30;;
17207;SDS011;8720;48.488;9.202;2023-02-19T15:39:54;2.10;;;1.90;;
17207;SDS011;8720;48.488;9.202;2023-02-19T15:42:26;3.13;;;2.53;;
17207;SDS011;8720;48.488;9.202;2023-02-19T15:44:59;3.47;;;2.67;;
17207;SDS011;8720;48.488;9.202;2023-02-19T15:47:34;2.33;;;2.00;;
17207;SDS011;8720;48.488;9.202;2023-02-19T15:50:07;2.63;;;2.43;;
17207;SDS011;8720;48.488;9.202;2023-02-19T15:52:43;3.50;;;2.70;;
17207;SDS011;8720;48.488;9.202;2023-02-19T15:58:11;2.27;;;1.97;;
17207;SDS011;8720;48.488;9.202;2023-02-19T16:00:47;1.87;;;1.60;;
17207;SDS011;8720;48.488;9.202;2023-02-19T16:03:19;2.77;;;1.60;;
17207;SDS011;8720;48.488;9.202;2023-02-19T16:05:59;3.20;;;2.00;;
17207;SDS011;8720;48.488;9.202;2023-02-19T16:08:29;2.67;;;2.23;;
17207;SDS011;8720;48.488;9.202;2023-02-19T16:11:00;3.17;;;2.33;;
17207;SDS011;8720;48.488;9.202;2023-02-19T16:13:30;3.87;;;2.00;;
17207;SDS011;8720;48.488;9.202;2023-02-19T16:16:02;2.00;;;1.80;;